sensor_id;sensor_type;location;lat;lon;timestamp;temperature;humidity
78463;SHT31;67756;51.982;5.648;2023-07-20T00:00:15;20.8;65.7
78463;SHT31;67756;51.982;5.648;2023-07-20T00:02:44;20.7;66.1
78463;SHT31;67756;51.982;5.648;2023-07-20T00:05:12;20.6;65.7
78463;SHT31;67756;51.982;5.648;2023-07-20T00:07:44;20.5;65.5
78463;SHT31;67756;51.982;5.648;2023-07-20T00:10:13;20.4;66.3
78463;SHT31;67756;51.982;5.648;2023-07-20T00:12:41;20.3;66.8
78463;SHT31;67756;51.982;5.648;2023-07-20T00:15:14;20.2;67.4
78463;SHT31;67756;51.982;5.648;2023-07-20T00:17:42;20.2;68.0
78463;SHT31;67756;51.982;5.648;2023-07-20T00:20:12;20.1;67.7
78463;SHT31;67756;51.982;5.648;2023-07-20T00:22:41;20.1;67.4
78463;SHT31;67756;51.982;5.648;2023-07-20T00:25:10;20.1;67.4
78463;SHT31;67756;51.982;5.648;2023-07-20T00:27:39;20.0;67.9
78463;SHT31;67756;51.982;5.648;2023-07-20T00:30:11;20.0;67.7
78463;SHT31;67756;51.982;5.648;2023-07-20T00:32:42;20.0;67.7
78463;SHT31;67756;51.982;5.648;2023-07-20T00:35:11;20.0;67.7
78463;SHT31;67756;51.982;5.648;2023-07-20T00:37:40;20.0;67.7
78463;SHT31;67756;51.982;5.648;2023-07-20T00:40:11;19.9;68.0
78463;SHT31;67756;51.982;5.648;2023-07-20T00:42:40;19.9;67.5
78463;SHT31;67756;51.982;5.648;2023-07-20T00:45:09;19.9;68.0
78463;SHT31;67756;51.982;5.648;2023-07-20T00:47:37;19.8;67.9
78463;SHT31;67756;51.982;5.648;2023-07-20T00:50:10;19.8;67.9
78463;SHT31;67756;51.982;5.648;2023-07-20T00:52:40;19.8;68.7
78463;SHT31;67756;51.982;5.648;2023-07-20T00:55:10;19.9;68.2
78463;SHT31;67756;51.982;5.648;2023-07-20T00:57:41;20.0;67.3
78463;SHT31;67756;51.982;5.648;2023-07-20T01:00:10;20.0;66.0
78463;SHT31;67756;51.982;5.648;2023-07-20T01:02:39;20.1;67.8
78463;SHT31;67756;51.982;5.648;2023-07-20T01:05:09;20.1;66.8
78463;SHT31;67756;51.982;5.648;2023-07-20T01:07:45;20.1;66.5
78463;SHT31;67756;51.982;5.648;2023-07-20T01:10:20;20.1;66.9
78463;SHT31;67756;51.982;5.648;2023-07-20T01:12:52;20.1;66.3
78463;SHT31;67756;51.982;5.648;2023-07-20T01:15:21;20.1;66.7
78463;SHT31;67756;51.982;5.648;2023-07-20T01:17:52;20.1;66.8
78463;SHT31;67756;51.982;5.648;2023-07-20T01:20:22;20.0;66.1
78463;SHT31;67756;51.982;5.648;2023-07-20T01:23:27;20.0;66.4
78463;SHT31;67756;51.982;5.648;2023-07-20T01:26:16;20.0;66.4
78463;SHT31;67756;51.982;5.648;2023-07-20T01:29:17;20.0;66.1
78463;SHT31;67756;51.982;5.648;2023-07-20T01:31:53;19.9;66.0
78463;SHT31;67756;51.982;5.648;2023-07-20T01:34:24;19.9;66.2
78463;SHT31;67756;51.982;5.648;2023-07-20T01:36:55;19.8;66.1
78463;SHT31;67756;51.982;5.648;2023-07-20T01:39:24;19.8;66.1
78463;SHT31;67756;51.982;5.648;2023-07-20T01:41:53;19.7;66.2
78463;SHT31;67756;51.982;5.648;2023-07-20T01:44:22;19.7;66.1
78463;SHT31;67756;51.982;5.648;2023-07-20T01:46:50;19.7;67.0
78463;SHT31;67756;51.982;5.648;2023-07-20T01:49:19;19.6;67.1
78463;SHT31;67756;51.982;5.648;2023-07-20T01:51:47;19.6;67.1
78463;SHT31;67756;51.982;5.648;2023-07-20T01:54:16;19.6;67.1
78463;SHT31;67756;51.982;5.648;2023-07-20T01:56:47;19.5;67.1
78463;SHT31;67756;51.982;5.648;2023-07-20T01:59:16;19.5;67.2
78463;SHT31;67756;51.982;5.648;2023-07-20T02:01:44;19.5;67.1
78463;SHT31;67756;51.982;5.648;2023-07-20T02:04:13;19.5;66.9
78463;SHT31;67756;51.982;5.648;2023-07-20T02:06:41;19.4;66.8
78463;SHT31;67756;51.982;5.648;2023-07-20T02:09:10;19.4;66.8
78463;SHT31;67756;51.982;5.648;2023-07-20T02:11:39;19.4;67.1
78463;SHT31;67756;51.982;5.648;2023-07-20T02:14:07;19.4;67.0
78463;SHT31;67756;51.982;5.648;2023-07-20T02:16:36;19.3;66.9
78463;SHT31;67756;51.982;5.648;2023-07-20T02:19:04;19.3;66.7
78463;SHT31;67756;51.982;5.648;2023-07-20T02:21:33;19.3;67.2
78463;SHT31;67756;51.982;5.648;2023-07-20T02:24:02;19.3;67.0
78463;SHT31;67756;51.982;5.648;2023-07-20T02:26:30;19.3;66.8
78463;SHT31;67756;51.982;5.648;2023-07-20T02:28:59;19.3;66.8
78463;SHT31;67756;51.982;5.648;2023-07-20T02:31:30;19.3;66.7
78463;SHT31;67756;51.982;5.648;2023-07-20T02:33:59;19.2;66.6
78463;SHT31;67756;51.982;5.648;2023-07-20T02:36:27;19.2;66.1
78463;SHT31;67756;51.982;5.648;2023-07-20T02:38:56;19.2;66.1
78463;SHT31;67756;51.982;5.648;2023-07-20T02:41:24;19.2;66.2
78463;SHT31;67756;51.982;5.648;2023-07-20T02:43:53;19.1;66.6
78463;SHT31;67756;51.982;5.648;2023-07-20T02:46:23;19.1;65.9
78463;SHT31;67756;51.982;5.648;2023-07-20T02:48:51;19.0;66.1
78463;SHT31;67756;51.982;5.648;2023-07-20T02:51:20;19.0;66.8
78463;SHT31;67756;51.982;5.648;2023-07-20T02:53:49;19.0;67.4
78463;SHT31;67756;51.982;5.648;2023-07-20T02:56:17;19.0;67.8
78463;SHT31;67756;51.982;5.648;2023-07-20T02:58:48;19.0;67.9
78463;SHT31;67756;51.982;5.648;2023-07-20T03:01:18;19.0;67.4
78463;SHT31;67756;51.982;5.648;2023-07-20T03:03:49;18.9;67.3
78463;SHT31;67756;51.982;5.648;2023-07-20T03:06:19;18.9;67.2
78463;SHT31;67756;51.982;5.648;2023-07-20T03:08:48;18.9;67.3
78463;SHT31;67756;51.982;5.648;2023-07-20T03:11:19;18.9;67.0
78463;SHT31;67756;51.982;5.648;2023-07-20T03:13:50;18.9;67.2
78463;SHT31;67756;51.982;5.648;2023-07-20T03:16:21;18.9;66.9
78463;SHT31;67756;51.982;5.648;2023-07-20T03:18:51;18.9;67.2
78463;SHT31;67756;51.982;5.648;2023-07-20T03:21:20;18.8;66.9
78463;SHT31;67756;51.982;5.648;2023-07-20T03:23:48;18.8;67.3
78463;SHT31;67756;51.982;5.648;2023-07-20T03:26:19;18.8;67.0
78463;SHT31;67756;51.982;5.648;2023-07-20T03:28:49;18.8;67.1
78463;SHT31;67756;51.982;5.648;2023-07-20T03:31:18;18.7;67.1
78463;SHT31;67756;51.982;5.648;2023-07-20T03:33:46;18.7;66.7
78463;SHT31;67756;51.982;5.648;2023-07-20T03:36:15;18.7;66.8
78463;SHT31;67756;51.982;5.648;2023-07-20T03:38:43;18.6;66.6
78463;SHT31;67756;51.982;5.648;2023-07-20T03:41:14;18.6;66.9
78463;SHT31;67756;51.982;5.648;2023-07-20T03:43:42;18.6;67.0
78463;SHT31;67756;51.982;5.648;2023-07-20T03:46:14;18.6;67.0
78463;SHT31;67756;51.982;5.648;2023-07-20T03:48:46;18.6;67.1
78463;SHT31;67756;51.982;5.648;2023-07-20T03:51:14;18.7;66.6
78463;SHT31;67756;51.982;5.648;2023-07-20T03:53:43;18.8;66.0
78463;SHT31;67756;51.982;5.648;2023-07-20T03:56:14;18.8;66.0
78463;SHT31;67756;51.982;5.648;2023-07-20T03:58:42;18.7;65.8
78463;SHT31;67756;51.982;5.648;2023-07-20T04:01:11;18.7;65.5
78463;SHT31;67756;51.982;5.648;2023-07-20T04:03:39;18.7;65.6
78463;SHT31;67756;51.982;5.648;2023-07-20T04:06:09;18.7;65.8
78463;SHT31;67756;51.982;5.648;2023-07-20T04:08:38;18.7;65.4
78463;SHT31;67756;51.982;5.648;2023-07-20T04:11:07;18.8;65.0
78463;SHT31;67756;51.982;5.648;2023-07-20T04:13:35;18.7;65.2
78463;SHT31;67756;51.982;5.648;2023-07-20T04:16:04;18.7;65.7
78463;SHT31;67756;51.982;5.648;2023-07-20T04:18:35;18.7;66.0
78463;SHT31;67756;51.982;5.648;2023-07-20T04:21:04;18.6;66.4
78463;SHT31;67756;51.982;5.648;2023-07-20T04:23:32;18.6;66.6
78463;SHT31;67756;51.982;5.648;2023-07-20T04:26:01;18.6;66.8
78463;SHT31;67756;51.982;5.648;2023-07-20T04:28:30;18.6;67.2
78463;SHT31;67756;51.982;5.648;2023-07-20T04:31:11;18.5;67.4
78463;SHT31;67756;51.982;5.648;2023-07-20T04:33:41;18.5;67.5
78463;SHT31;67756;51.982;5.648;2023-07-20T04:36:09;18.5;67.5
78463;SHT31;67756;51.982;5.648;2023-07-20T04:38:42;18.5;67.5
78463;SHT31;67756;51.982;5.648;2023-07-20T04:41:10;18.5;67.8
78463;SHT31;67756;51.982;5.648;2023-07-20T04:43:43;18.5;68.1
78463;SHT31;67756;51.982;5.648;2023-07-20T04:46:12;18.5;68.2
78463;SHT31;67756;51.982;5.648;2023-07-20T04:48:42;18.5;68.4
78463;SHT31;67756;51.982;5.648;2023-07-20T04:51:11;18.5;68.4
78463;SHT31;67756;51.982;5.648;2023-07-20T04:53:39;18.5;68.3
78463;SHT31;67756;51.982;5.648;2023-07-20T04:56:08;18.5;69.0
78463;SHT31;67756;51.982;5.648;2023-07-20T04:58:37;18.5;68.6
78463;SHT31;67756;51.982;5.648;2023-07-20T05:01:05;18.5;69.2
78463;SHT31;67756;51.982;5.648;2023-07-20T05:03:34;18.5;69.0
78463;SHT31;67756;51.982;5.648;2023-07-20T05:06:02;18.6;69.0
78463;SHT31;67756;51.982;5.648;2023-07-20T05:08:31;18.6;69.6
78463;SHT31;67756;51.982;5.648;2023-07-20T05:11:01;18.6;69.4
78463;SHT31;67756;51.982;5.648;2023-07-20T05:13:30;18.7;69.1
78463;SHT31;67756;51.982;5.648;2023-07-20T05:15:59;18.7;68.8
78463;SHT31;67756;51.982;5.648;2023-07-20T05:18:29;18.8;68.8
78463;SHT31;67756;51.982;5.648;2023-07-20T05:20:59;18.8;69.1
78463;SHT31;67756;51.982;5.648;2023-07-20T05:23:28;18.8;68.9
78463;SHT31;67756;51.982;5.648;2023-07-20T05:25:57;18.9;68.7
78463;SHT31;67756;51.982;5.648;2023-07-20T05:28:27;18.9;69.0
78463;SHT31;67756;51.982;5.648;2023-07-20T05:30:56;18.9;68.8
78463;SHT31;67756;51.982;5.648;2023-07-20T05:33:26;18.9;69.0
78463;SHT31;67756;51.982;5.648;2023-07-20T05:35:54;18.9;69.0
78463;SHT31;67756;51.982;5.648;2023-07-20T05:38:23;18.9;69.4
78463;SHT31;67756;51.982;5.648;2023-07-20T05:40:51;18.9;69.2
78463;SHT31;67756;51.982;5.648;2023-07-20T05:43:20;18.9;68.9
78463;SHT31;67756;51.982;5.648;2023-07-20T05:45:50;18.9;68.6
78463;SHT31;67756;51.982;5.648;2023-07-20T05:48:19;18.9;69.0
78463;SHT31;67756;51.982;5.648;2023-07-20T05:50:49;18.9;69.0
78463;SHT31;67756;51.982;5.648;2023-07-20T05:53:18;18.9;69.5
78463;SHT31;67756;51.982;5.648;2023-07-20T05:55:51;18.9;69.0
78463;SHT31;67756;51.982;5.648;2023-07-20T05:58:20;18.9;69.3
78463;SHT31;67756;51.982;5.648;2023-07-20T06:00:49;18.9;68.9
78463;SHT31;67756;51.982;5.648;2023-07-20T06:03:18;18.9;69.0
78463;SHT31;67756;51.982;5.648;2023-07-20T06:05:47;18.9;68.9
78463;SHT31;67756;51.982;5.648;2023-07-20T06:08:18;18.9;69.1
78463;SHT31;67756;51.982;5.648;2023-07-20T06:10:49;18.9;69.2
78463;SHT31;67756;51.982;5.648;2023-07-20T06:13:19;18.9;69.4
78463;SHT31;67756;51.982;5.648;2023-07-20T06:15:47;18.9;69.3
78463;SHT31;67756;51.982;5.648;2023-07-20T06:18:16;18.9;69.3
78463;SHT31;67756;51.982;5.648;2023-07-20T06:20:50;18.9;69.7
78463;SHT31;67756;51.982;5.648;2023-07-20T06:23:19;19.0;69.5
78463;SHT31;67756;51.982;5.648;2023-07-20T06:25:49;19.0;69.8
78463;SHT31;67756;51.982;5.648;2023-07-20T06:28:18;19.0;69.2
78463;SHT31;67756;51.982;5.648;2023-07-20T06:30:47;19.0;68.6
78463;SHT31;67756;51.982;5.648;2023-07-20T06:33:17;19.1;68.6
78463;SHT31;67756;51.982;5.648;2023-07-20T06:35:48;19.1;68.7
78463;SHT31;67756;51.982;5.648;2023-07-20T06:38:19;19.1;68.6
78463;SHT31;67756;51.982;5.648;2023-07-20T06:40:50;19.2;67.9
78463;SHT31;67756;51.982;5.648;2023-07-20T06:43:21;19.2;66.9
78463;SHT31;67756;51.982;5.648;2023-07-20T06:45:53;19.3;66.8
78463;SHT31;67756;51.982;5.648;2023-07-20T06:48:22;19.3;66.1
78463;SHT31;67756;51.982;5.648;2023-07-20T06:50:52;19.3;66.4
78463;SHT31;67756;51.982;5.648;2023-07-20T06:53:22;19.3;64.7
78463;SHT31;67756;51.982;5.648;2023-07-20T06:55:50;19.4;65.0
78463;SHT31;67756;51.982;5.648;2023-07-20T06:58:19;19.4;64.0
78463;SHT31;67756;51.982;5.648;2023-07-20T07:00:48;19.4;65.3
78463;SHT31;67756;51.982;5.648;2023-07-20T07:03:16;19.5;64.6
78463;SHT31;67756;51.982;5.648;2023-07-20T07:05:46;19.5;62.8
78463;SHT31;67756;51.982;5.648;2023-07-20T07:08:14;19.6;63.1
78463;SHT31;67756;51.982;5.648;2023-07-20T07:10:43;19.6;64.8
78463;SHT31;67756;51.982;5.648;2023-07-20T07:13:12;19.7;65.2
78463;SHT31;67756;51.982;5.648;2023-07-20T07:15:40;19.7;64.2
78463;SHT31;67756;51.982;5.648;2023-07-20T07:18:09;19.7;64.3
78463;SHT31;67756;51.982;5.648;2023-07-20T07:20:37;19.8;64.1
78463;SHT31;67756;51.982;5.648;2023-07-20T07:23:08;19.9;62.5
78463;SHT31;67756;51.982;5.648;2023-07-20T07:25:38;19.9;64.1
78463;SHT31;67756;51.982;5.648;2023-07-20T07:28:07;20.0;61.8
78463;SHT31;67756;51.982;5.648;2023-07-20T07:30:35;20.0;62.2
78463;SHT31;67756;51.982;5.648;2023-07-20T07:33:05;20.1;61.2
78463;SHT31;67756;51.982;5.648;2023-07-20T07:35:33;20.1;60.1
78463;SHT31;67756;51.982;5.648;2023-07-20T07:38:02;20.1;60.6
78463;SHT31;67756;51.982;5.648;2023-07-20T07:40:31;20.1;60.5
78463;SHT31;67756;51.982;5.648;2023-07-20T07:43:00;20.2;59.5
78463;SHT31;67756;51.982;5.648;2023-07-20T07:45:30;20.2;58.9
78463;SHT31;67756;51.982;5.648;2023-07-20T07:47:58;20.2;59.4
78463;SHT31;67756;51.982;5.648;2023-07-20T07:50:27;20.3;60.2
78463;SHT31;67756;51.982;5.648;2023-07-20T07:52:55;20.3;59.5
78463;SHT31;67756;51.982;5.648;2023-07-20T07:55:24;20.4;58.3
78463;SHT31;67756;51.982;5.648;2023-07-20T07:57:54;20.6;58.6
78463;SHT31;67756;51.982;5.648;2023-07-20T08:00:23;20.8;58.7
78463;SHT31;67756;51.982;5.648;2023-07-20T08:02:52;21.0;57.0
78463;SHT31;67756;51.982;5.648;2023-07-20T08:05:22;21.1;56.8
78463;SHT31;67756;51.982;5.648;2023-07-20T08:07:51;21.1;55.8
78463;SHT31;67756;51.982;5.648;2023-07-20T08:10:22;21.2;55.7
78463;SHT31;67756;51.982;5.648;2023-07-20T08:12:51;21.3;55.2
78463;SHT31;67756;51.982;5.648;2023-07-20T08:15:22;21.3;56.3
78463;SHT31;67756;51.982;5.648;2023-07-20T08:17:51;21.4;53.9
78463;SHT31;67756;51.982;5.648;2023-07-20T08:20:20;21.4;53.8
78463;SHT31;67756;51.982;5.648;2023-07-20T08:22:52;21.5;54.6
78463;SHT31;67756;51.982;5.648;2023-07-20T08:25:22;21.5;53.1
78463;SHT31;67756;51.982;5.648;2023-07-20T08:27:50;21.5;52.6
78463;SHT31;67756;51.982;5.648;2023-07-20T08:30:21;21.6;52.5
78463;SHT31;67756;51.982;5.648;2023-07-20T08:32:50;21.6;54.5
78463;SHT31;67756;51.982;5.648;2023-07-20T08:35:19;21.6;53.9
78463;SHT31;67756;51.982;5.648;2023-07-20T08:37:48;21.5;53.8
78463;SHT31;67756;51.982;5.648;2023-07-20T08:40:17;21.5;54.5
78463;SHT31;67756;51.982;5.648;2023-07-20T08:42:46;21.5;54.1
78463;SHT31;67756;51.982;5.648;2023-07-20T08:45:17;21.5;53.0
78463;SHT31;67756;51.982;5.648;2023-07-20T08:47:47;21.5;53.3
78463;SHT31;67756;51.982;5.648;2023-07-20T08:50:18;21.5;52.0
78463;SHT31;67756;51.982;5.648;2023-07-20T08:52:52;21.5;52.8
78463;SHT31;67756;51.982;5.648;2023-07-20T08:55:23;21.6;52.6
78463;SHT31;67756;51.982;5.648;2023-07-20T08:57:53;21.6;52.0
78463;SHT31;67756;51.982;5.648;2023-07-20T09:00:23;21.6;51.4
78463;SHT31;67756;51.982;5.648;2023-07-20T09:02:54;21.7;51.2
78463;SHT31;67756;51.982;5.648;2023-07-20T09:05:25;21.8;51.7
78463;SHT31;67756;51.982;5.648;2023-07-20T09:07:53;22.0;52.0
78463;SHT31;67756;51.982;5.648;2023-07-20T09:10:24;22.1;52.1
78463;SHT31;67756;51.982;5.648;2023-07-20T09:12:52;22.3;53.1
78463;SHT31;67756;51.982;5.648;2023-07-20T09:15:23;22.5;51.6
78463;SHT31;67756;51.982;5.648;2023-07-20T09:17:52;22.6;51.3
78463;SHT31;67756;51.982;5.648;2023-07-20T09:20:22;22.7;51.3
78463;SHT31;67756;51.982;5.648;2023-07-20T09:22:51;22.7;50.1
78463;SHT31;67756;51.982;5.648;2023-07-20T09:25:20;22.8;50.7
78463;SHT31;67756;51.982;5.648;2023-07-20T09:27:51;22.8;48.6
78463;SHT31;67756;51.982;5.648;2023-07-20T09:30:25;22.8;49.1
78463;SHT31;67756;51.982;5.648;2023-07-20T09:32:56;22.8;50.0
78463;SHT31;67756;51.982;5.648;2023-07-20T09:35:25;22.9;49.3
78463;SHT31;67756;51.982;5.648;2023-07-20T09:37:57;22.9;50.9
78463;SHT31;67756;51.982;5.648;2023-07-20T09:40:27;23.0;50.4
78463;SHT31;67756;51.982;5.648;2023-07-20T09:42:55;23.0;48.5
78463;SHT31;67756;51.982;5.648;2023-07-20T09:45:30;23.2;48.3
78463;SHT31;67756;51.982;5.648;2023-07-20T09:48:05;23.2;48.0
78463;SHT31;67756;51.982;5.648;2023-07-20T09:50:34;23.3;49.3
78463;SHT31;67756;51.982;5.648;2023-07-20T09:53:09;23.3;47.1
78463;SHT31;67756;51.982;5.648;2023-07-20T09:55:39;23.4;47.2
78463;SHT31;67756;51.982;5.648;2023-07-20T09:58:10;23.4;46.8
78463;SHT31;67756;51.982;5.648;2023-07-20T10:00:41;23.4;47.3
78463;SHT31;67756;51.982;5.648;2023-07-20T10:03:18;23.4;49.0
78463;SHT31;67756;51.982;5.648;2023-07-20T10:05:51;23.4;47.0
78463;SHT31;67756;51.982;5.648;2023-07-20T10:08:24;23.4;45.2
78463;SHT31;67756;51.982;5.648;2023-07-20T10:10:55;23.4;46.9
78463;SHT31;67756;51.982;5.648;2023-07-20T10:13:27;23.4;47.7
78463;SHT31;67756;51.982;5.648;2023-07-20T10:16:01;23.4;49.2
78463;SHT31;67756;51.982;5.648;2023-07-20T10:18:38;23.4;48.6
78463;SHT31;67756;51.982;5.648;2023-07-20T10:21:09;23.4;48.9
78463;SHT31;67756;51.982;5.648;2023-07-20T10:23:41;23.4;49.6
78463;SHT31;67756;51.982;5.648;2023-07-20T10:26:13;23.4;49.8
78463;SHT31;67756;51.982;5.648;2023-07-20T10:28:44;23.5;47.7
78463;SHT31;67756;51.982;5.648;2023-07-20T10:31:14;23.6;47.4
78463;SHT31;67756;51.982;5.648;2023-07-20T10:33:44;23.7;47.7
78463;SHT31;67756;51.982;5.648;2023-07-20T10:36:14;23.9;46.5
78463;SHT31;67756;51.982;5.648;2023-07-20T10:38:54;24.0;44.4
78463;SHT31;67756;51.982;5.648;2023-07-20T10:41:31;24.1;45.0
78463;SHT31;67756;51.982;5.648;2023-07-20T10:44:03;24.2;44.1
78463;SHT31;67756;51.982;5.648;2023-07-20T10:46:45;24.2;44.7
78463;SHT31;67756;51.982;5.648;2023-07-20T10:49:15;24.3;45.3
78463;SHT31;67756;51.982;5.648;2023-07-20T10:51:49;24.3;43.4
78463;SHT31;67756;51.982;5.648;2023-07-20T10:54:50;24.4;43.1
78463;SHT31;67756;51.982;5.648;2023-07-20T10:57:29;24.6;44.1
78463;SHT31;67756;51.982;5.648;2023-07-20T11:00:12;25.0;42.7
78463;SHT31;67756;51.982;5.648;2023-07-20T11:02:46;25.3;41.7
78463;SHT31;67756;51.982;5.648;2023-07-20T11:05:34;25.4;42.5
78463;SHT31;67756;51.982;5.648;2023-07-20T11:08:06;25.5;40.9
78463;SHT31;67756;51.982;5.648;2023-07-20T11:10:36;25.6;42.3
78463;SHT31;67756;51.982;5.648;2023-07-20T11:14:07;25.5;41.5
78463;SHT31;67756;51.982;5.648;2023-07-20T11:16:38;25.5;41.4
78463;SHT31;67756;51.982;5.648;2023-07-20T11:19:19;25.6;41.6
78463;SHT31;67756;51.982;5.648;2023-07-20T11:21:52;25.7;40.0
78463;SHT31;67756;51.982;5.648;2023-07-20T11:24:22;26.0;39.7
78463;SHT31;67756;51.982;5.648;2023-07-20T11:26:52;26.2;40.3
78463;SHT31;67756;51.982;5.648;2023-07-20T11:29:22;26.5;38.8
78463;SHT31;67756;51.982;5.648;2023-07-20T11:31:52;26.8;39.0
78463;SHT31;67756;51.982;5.648;2023-07-20T11:34:21;27.1;37.2
78463;SHT31;67756;51.982;5.648;2023-07-20T11:36:51;27.4;35.6
78463;SHT31;67756;51.982;5.648;2023-07-20T11:39:22;27.6;35.8
78463;SHT31;67756;51.982;5.648;2023-07-20T11:41:53;27.8;35.5
78463;SHT31;67756;51.982;5.648;2023-07-20T11:44:24;28.0;35.9
78463;SHT31;67756;51.982;5.648;2023-07-20T11:47:02;28.3;35.6
78463;SHT31;67756;51.982;5.648;2023-07-20T11:49:35;28.5;35.4
78463;SHT31;67756;51.982;5.648;2023-07-20T11:52:05;28.7;33.5
78463;SHT31;67756;51.982;5.648;2023-07-20T11:54:35;28.8;33.4
78463;SHT31;67756;51.982;5.648;2023-07-20T11:57:04;29.0;32.8
78463;SHT31;67756;51.982;5.648;2023-07-20T11:59:33;29.1;32.4
78463;SHT31;67756;51.982;5.648;2023-07-20T12:02:02;29.2;34.2
78463;SHT31;67756;51.982;5.648;2023-07-20T12:04:31;29.3;34.8
78463;SHT31;67756;51.982;5.648;2023-07-20T12:07:01;29.6;33.7
78463;SHT31;67756;51.982;5.648;2023-07-20T12:09:29;29.8;33.1
78463;SHT31;67756;51.982;5.648;2023-07-20T12:11:58;30.0;31.7
78463;SHT31;67756;51.982;5.648;2023-07-20T12:14:27;30.1;31.1
78463;SHT31;67756;51.982;5.648;2023-07-20T12:16:55;30.2;30.8
78463;SHT31;67756;51.982;5.648;2023-07-20T12:19:26;30.4;31.4
78463;SHT31;67756;51.982;5.648;2023-07-20T12:21:57;30.7;32.1
78463;SHT31;67756;51.982;5.648;2023-07-20T12:24:29;31.1;31.4
78463;SHT31;67756;51.982;5.648;2023-07-20T12:27:00;31.4;30.9
78463;SHT31;67756;51.982;5.648;2023-07-20T12:29:28;31.7;30.1
78463;SHT31;67756;51.982;5.648;2023-07-20T12:31:58;31.9;29.9
78463;SHT31;67756;51.982;5.648;2023-07-20T12:34:27;32.1;29.0
78463;SHT31;67756;51.982;5.648;2023-07-20T12:36:56;32.1;28.4
78463;SHT31;67756;51.982;5.648;2023-07-20T12:39:27;32.1;28.4
78463;SHT31;67756;51.982;5.648;2023-07-20T12:41:58;32.1;29.2
78463;SHT31;67756;51.982;5.648;2023-07-20T12:44:26;32.2;29.2
78463;SHT31;67756;51.982;5.648;2023-07-20T12:46:55;32.2;28.8
78463;SHT31;67756;51.982;5.648;2023-07-20T12:49:25;32.2;29.4
78463;SHT31;67756;51.982;5.648;2023-07-20T12:51:53;32.3;29.4
78463;SHT31;67756;51.982;5.648;2023-07-20T12:54:22;32.3;27.9
78463;SHT31;67756;51.982;5.648;2023-07-20T12:56:50;32.4;29.3
78463;SHT31;67756;51.982;5.648;2023-07-20T12:59:19;32.3;28.6
78463;SHT31;67756;51.982;5.648;2023-07-20T13:01:47;32.0;28.9
78463;SHT31;67756;51.982;5.648;2023-07-20T13:04:16;31.8;30.8
78463;SHT31;67756;51.982;5.648;2023-07-20T13:06:45;31.6;29.8
78463;SHT31;67756;51.982;5.648;2023-07-20T13:09:14;31.6;29.5
78463;SHT31;67756;51.982;5.648;2023-07-20T13:11:42;31.4;29.8
78463;SHT31;67756;51.982;5.648;2023-07-20T13:14:14;31.2;30.4
78463;SHT31;67756;51.982;5.648;2023-07-20T13:16:42;31.1;29.3
78463;SHT31;67756;51.982;5.648;2023-07-20T13:19:11;30.9;29.7
78463;SHT31;67756;51.982;5.648;2023-07-20T13:21:39;30.8;30.7
78463;SHT31;67756;51.982;5.648;2023-07-20T13:24:08;30.8;32.0
78463;SHT31;67756;51.982;5.648;2023-07-20T13:26:37;30.8;30.8
78463;SHT31;67756;51.982;5.648;2023-07-20T13:29:05;30.8;31.3
78463;SHT31;67756;51.982;5.648;2023-07-20T13:31:34;30.8;29.6
78463;SHT31;67756;51.982;5.648;2023-07-20T13:34:02;30.8;30.9
78463;SHT31;67756;51.982;5.648;2023-07-20T13:36:32;30.7;30.3
78463;SHT31;67756;51.982;5.648;2023-07-20T13:39:00;30.6;31.0
78463;SHT31;67756;51.982;5.648;2023-07-20T13:41:31;30.4;30.3
78463;SHT31;67756;51.982;5.648;2023-07-20T13:44:01;30.3;30.1
78463;SHT31;67756;51.982;5.648;2023-07-20T13:46:29;30.2;31.6
78463;SHT31;67756;51.982;5.648;2023-07-20T13:48:59;30.2;30.8
78463;SHT31;67756;51.982;5.648;2023-07-20T13:51:28;30.2;30.7
78463;SHT31;67756;51.982;5.648;2023-07-20T13:53:56;30.3;30.9
78463;SHT31;67756;51.982;5.648;2023-07-20T13:56:25;30.6;32.1
78463;SHT31;67756;51.982;5.648;2023-07-20T13:58:55;31.3;30.1
78463;SHT31;67756;51.982;5.648;2023-07-20T14:01:24;31.8;29.4
78463;SHT31;67756;51.982;5.648;2023-07-20T14:03:55;32.2;29.5
78463;SHT31;67756;51.982;5.648;2023-07-20T14:06:24;32.5;29.0
78463;SHT31;67756;51.982;5.648;2023-07-20T14:08:53;32.8;28.9
78463;SHT31;67756;51.982;5.648;2023-07-20T14:11:22;32.9;27.8
78463;SHT31;67756;51.982;5.648;2023-07-20T14:13:51;32.9;27.9
78463;SHT31;67756;51.982;5.648;2023-07-20T14:16:20;32.8;28.1
78463;SHT31;67756;51.982;5.648;2023-07-20T14:18:49;32.5;28.5
78463;SHT31;67756;51.982;5.648;2023-07-20T14:21:19;32.2;29.7
78463;SHT31;67756;51.982;5.648;2023-07-20T14:23:50;31.9;29.8
78463;SHT31;67756;51.982;5.648;2023-07-20T14:26:20;31.8;29.4
78463;SHT31;67756;51.982;5.648;2023-07-20T14:28:50;31.6;29.6
78463;SHT31;67756;51.982;5.648;2023-07-20T14:31:19;31.5;28.9
78463;SHT31;67756;51.982;5.648;2023-07-20T14:33:48;31.5;30.0
78463;SHT31;67756;51.982;5.648;2023-07-20T14:36:17;31.4;30.5
78463;SHT31;67756;51.982;5.648;2023-07-20T14:38:47;31.5;30.0
78463;SHT31;67756;51.982;5.648;2023-07-20T14:41:15;31.6;29.4
78463;SHT31;67756;51.982;5.648;2023-07-20T14:43:44;31.7;29.3
78463;SHT31;67756;51.982;5.648;2023-07-20T14:46:12;31.8;30.1
78463;SHT31;67756;51.982;5.648;2023-07-20T14:48:41;32.0;29.3
78463;SHT31;67756;51.982;5.648;2023-07-20T14:51:10;32.2;28.5
78463;SHT31;67756;51.982;5.648;2023-07-20T14:53:38;32.4;28.1
78463;SHT31;67756;51.982;5.648;2023-07-20T14:56:07;32.6;28.5
78463;SHT31;67756;51.982;5.648;2023-07-20T14:58:38;32.7;28.1
78463;SHT31;67756;51.982;5.648;2023-07-20T15:01:07;32.9;28.0
78463;SHT31;67756;51.982;5.648;2023-07-20T15:03:35;33.1;27.8
78463;SHT31;67756;51.982;5.648;2023-07-20T15:06:12;33.2;28.1
78463;SHT31;67756;51.982;5.648;2023-07-20T15:08:40;33.5;27.4
78463;SHT31;67756;51.982;5.648;2023-07-20T15:11:09;33.6;27.8
78463;SHT31;67756;51.982;5.648;2023-07-20T15:13:37;33.6;27.4
78463;SHT31;67756;51.982;5.648;2023-07-20T15:16:08;33.6;27.1
78463;SHT31;67756;51.982;5.648;2023-07-20T15:18:38;33.4;27.2
78463;SHT31;67756;51.982;5.648;2023-07-20T15:21:08;33.2;28.4
78463;SHT31;67756;51.982;5.648;2023-07-20T15:23:36;32.9;26.7
78463;SHT31;67756;51.982;5.648;2023-07-20T15:26:05;32.5;26.2
78463;SHT31;67756;51.982;5.648;2023-07-20T15:28:35;32.1;27.3
78463;SHT31;67756;51.982;5.648;2023-07-20T15:31:04;31.8;28.3
78463;SHT31;67756;51.982;5.648;2023-07-20T15:33:33;31.6;27.2
78463;SHT31;67756;51.982;5.648;2023-07-20T15:36:02;31.3;27.6
78463;SHT31;67756;51.982;5.648;2023-07-20T15:38:32;31.0;27.5
78463;SHT31;67756;51.982;5.648;2023-07-20T15:41:00;30.9;28.9
78463;SHT31;67756;51.982;5.648;2023-07-20T15:43:30;30.7;28.5
78463;SHT31;67756;51.982;5.648;2023-07-20T15:48:53;30.5;28.9
78463;SHT31;67756;51.982;5.648;2023-07-20T15:51:22;30.5;29.8
78463;SHT31;67756;51.982;5.648;2023-07-20T15:53:50;30.4;28.7
78463;SHT31;67756;51.982;5.648;2023-07-20T15:56:19;30.3;28.6
78463;SHT31;67756;51.982;5.648;2023-07-20T15:58:48;30.2;29.0
78463;SHT31;67756;51.982;5.648;2023-07-20T16:01:16;30.1;29.4
78463;SHT31;67756;51.982;5.648;2023-07-20T16:03:45;29.9;29.8
78463;SHT31;67756;51.982;5.648;2023-07-20T16:06:14;29.8;30.0
78463;SHT31;67756;51.982;5.648;2023-07-20T16:08:43;29.7;30.4
78463;SHT31;67756;51.982;5.648;2023-07-20T16:11:12;29.5;30.6
78463;SHT31;67756;51.982;5.648;2023-07-20T16:13:41;29.3;31.7
78463;SHT31;67756;51.982;5.648;2023-07-20T16:16:11;29.2;31.3
78463;SHT31;67756;51.982;5.648;2023-07-20T16:18:40;29.1;31.2
78463;SHT31;67756;51.982;5.648;2023-07-20T16:21:08;29.0;31.2
78463;SHT31;67756;51.982;5.648;2023-07-20T16:23:37;28.8;31.4